aviador You're here:

EGUL Decoded Metar

LAKENHEATH in ENGLAND
Report Time2017-08-18 00:58:00
UTC Time2017-08-18 01:14:35
Flight Rules vfr VFR
Wind210° at 08 kt
W.Decomp.*RWY 24: 7.0 kt HW 3.9 kt LCW
W.Rank210° ranks 4
Current wind is below 210° avg. (10.5)
Visibility9999 m
Phenomena:N/A
Clouds:Few 070 Hf
CeilingNone
Temp16°C (ISA +1)
Dew Point16°C (100% RH)
AAT15.1°C
QNH1009 hPa
Density Alt535 ft
Elevation33 ft
Report Wrong Elevation
Raw Report
EGUL 180058Z AUTO 21008KT 9999 FEW070 16/16 A2980 RMK AO2 SLP094
T01600160=

Extra information for EGUL:More info

Metar Taf Metar & Taf Last 4 Metars F.Rules Stats Wind Profile Meteogram Temp Stats Airport Information Weather charts Add Link Nearby VenuesMetar ALERT Operation Metar Decoded Social comments